Time;durP1;ratioP1;P1;durP2;ratioP2;P2;SDS_P1;SDS_P2;PMS_P1;PMS_P2;Temp;Humidity;BMP_temperature;BMP_pressure;BME280_temperature;BME280_humidity;BME280_pressure;Samples;Min_cycle;Max_cycle;Signal;HPM_P1;HPM_P2
2022/09/14 00:00:59;;;;;;;4.70;3.67;;;14.40;88.20;;;;;;4935552;29;20109;-88
2022/09/14 00:03:25;;;;;;;4.40;3.28;;;14.40;88.00;;;;;;4930908;29;20031;-87
2022/09/14 00:05:50;;;;;;;4.55;3.70;;;14.40;87.90;;;;;;4949589;29;20036;-87
2022/09/14 00:08:16;;;;;;;4.32;3.47;;;14.50;87.90;;;;;;4949702;28;20129;-88
2022/09/14 00:10:44;;;;;;;5.20;4.00;;;14.50;87.70;;;;;;4952858;29;20446;-87
2022/09/14 00:13:12;;;;;;;4.32;3.60;;;14.50;87.60;;;;;;4932243;29;20027;-86
2022/09/14 00:15:40;;;;;;;5.95;4.05;;;14.60;87.50;;;;;;4928872;29;20066;-88
2022/09/14 00:18:08;;;;;;;4.93;3.70;;;14.60;87.30;;;;;;4919823;29;20480;-87
2022/09/14 00:20:34;;;;;;;4.80;3.75;;;14.60;87.20;;;;;;4927722;29;20027;-88
2022/09/14 00:23:00;;;;;;;4.18;3.30;;;14.60;87.20;;;;;;4935798;29;20031;-87
2022/09/14 00:25:26;;;;;;;5.18;3.92;;;14.60;87.10;;;;;;4941602;28;20038;-87
2022/09/14 00:27:53;;;;;;;4.75;3.88;;;14.70;87.10;;;;;;4924355;29;20066;-88
2022/09/14 00:30:20;;;;;;;3.92;3.50;;;14.70;87.10;;;;;;4931927;29;20038;-85
2022/09/14 00:32:46;;;;;;;4.32;3.60;;;14.70;86.90;;;;;;4952028;29;20030;-88
2022/09/14 00:35:12;;;;;;;4.65;3.78;;;14.70;86.80;;;;;;4931491;29;20019;-87
2022/09/14 00:37:38;;;;;;;5.18;4.22;;;14.70;86.60;;;;;;4924219;28;20114;-87
2022/09/14 00:40:05;;;;;;;5.28;4.10;;;14.70;86.70;;;;;;4932817;29;20034;-87
2022/09/14 00:42:31;;;;;;;4.97;4.03;;;14.70;86.70;;;;;;4934151;29;20054;-87
2022/09/14 00:45:00;;;;;;;6.05;3.97;;;14.70;86.70;;;;;;4933924;29;20031;-88
2022/09/14 00:47:27;;;;;;;4.78;4.15;;;14.70;86.70;;;;;;4928891;29;20024;-88
2022/09/14 00:49:53;;;;;;;4.43;3.63;;;14.70;86.60;;;;;;4936735;29;20038;-88
2022/09/14 00:52:32;;;;;;;4.80;4.18;;;14.70;86.50;;;;;;4935084;29;20126;-88
2022/09/14 00:55:07;;;;;;;4.82;4.20;;;14.70;86.40;;;;;;4930574;29;20459;-87
2022/09/14 00:57:39;;;;;;;5.30;4.05;;;14.70;86.50;;;;;;4930403;29;20031;-86
2022/09/14 01:00:09;;;;;;;4.70;4.05;;;14.70;86.60;;;;;;4933011;29;20090;-85
2022/09/14 01:02:35;;;;;;;5.03;4.45;;;14.60;86.60;;;;;;4932352;29;20031;-88
2022/09/14 01:05:01;;;;;;;5.43;4.15;;;14.70;86.60;;;;;;4933765;29;20063;-87
2022/09/14 01:07:51;;;;;;;4.78;3.92;;;14.70;86.60;;;;;;4943715;29;20078;-87
2022/09/14 01:10:29;;;;;;;5.93;4.75;;;14.70;87.10;;;;;;4925251;29;20110;-87
2022/09/14 01:13:06;;;;;;;5.03;4.13;;;14.70;86.50;;;;;;4934102;29;20080;-87
2022/09/14 01:15:41;;;;;;;4.93;4.32;;;14.70;86.40;;;;;;4923759;29;20031;-86
2022/09/14 01:18:22;;;;;;;6.03;4.38;;;14.70;86.20;;;;;;4948024;29;20121;-86
2022/09/14 01:20:54;;;;;;;4.80;4.00;;;14.70;86.20;;;;;;4935400;28;20038;-87
2022/09/14 01:23:56;;;;;;;6.63;4.78;;;14.70;86.30;;;;;;4935291;29;20030;-87
2022/09/14 01:27:01;;;;;;;4.72;3.80;;;14.80;86.40;;;;;;4920781;29;20043;-87
2022/09/14 01:29:33;;;;;;;4.97;3.83;;;14.80;86.30;;;;;;4914702;29;20044;-87
2022/09/14 01:32:17;;;;;;;5.68;4.15;;;14.80;86.30;;;;;;4932173;29;20521;-87
2022/09/14 01:34:59;;;;;;;6.47;4.43;;;14.80;86.10;;;;;;4948095;29;20031;-87
2022/09/14 01:37:36;;;;;;;5.25;4.07;;;14.80;86.00;;;;;;4933783;29;20027;-87
2022/09/14 01:40:36;;;;;;;4.97;3.97;;;14.80;86.00;;;;;;4922488;29;20106;-87
2022/09/14 01:43:23;;;;;;;5.25;4.22;;;14.80;85.90;;;;;;4939312;28;20115;-87
2022/09/14 01:45:54;;;;;;;5.13;4.07;;;14.80;85.90;;;;;;4944570;29;20039;-87
2022/09/14 01:48:36;;;;;;;4.30;3.78;;;14.90;85.80;;;;;;4925606;29;20495;-87
2022/09/14 01:51:04;;;;;;;;;;;14.90;85.80;;;;;;4934649;29;20170;-87
2022/09/14 01:53:53;;;;;;;5.78;3.70;;;14.90;85.70;;;;;;4930542;29;19993;-87
2022/09/14 01:56:49;;;;;;;4.88;3.88;;;14.90;85.50;;;;;;4929874;29;20054;-87
2022/09/14 01:59:23;;;;;;;3.67;3.30;;;14.90;85.30;;;;;;4910494;29;20042;-87
2022/09/14 02:01:51;;;;;;;6.07;3.97;;;14.90;85.40;;;;;;4932790;29;20144;-87
2022/09/14 02:04:27;;;;;;;4.20;3.55;;;15.00;85.40;;;;;;4930713;29;20027;-87
2022/09/14 02:06:55;;;;;;;5.60;3.88;;;15.00;85.40;;;;;;4935509;28;20035;-87
2022/09/14 02:09:25;;;;;;;5.03;3.72;;;15.00;85.30;;;;;;4933468;29;20514;-86
2022/09/14 02:11:52;;;;;;;4.72;4.03;;;15.00;85.20;;;;;;4949647;29;20031;-87
2022/09/14 02:14:18;;;;;;;4.22;3.75;;;15.00;85.20;;;;;;4927781;29;20150;-87
2022/09/14 02:16:45;;;;;;;4.75;4.10;;;15.00;85.20;;;;;;4944352;28;20491;-88
2022/09/14 02:19:14;;;;;;;4.72;3.80;;;15.00;85.00;;;;;;4951717;28;20019;-87
2022/09/14 02:21:39;;;;;;;4.97;4.18;;;15.00;85.00;;;;;;4931535;29;20111;-87
2022/09/14 02:24:05;;;;;;;5.40;4.22;;;15.00;85.20;;;;;;4924759;29;20083;-86
2022/09/14 02:26:31;;;;;;;5.05;3.97;;;15.00;84.90;;;;;;4938811;28;20044;-87
2022/09/14 02:28:58;;;;;;;4.10;3.50;;;15.00;85.00;;;;;;4943072;28;20498;-87
2022/09/14 02:32:04;;;;;;;5.28;3.88;;;14.90;84.90;;;;;;4925820;29;20034;-87
2022/09/14 02:35:06;;;;;;;5.20;3.80;;;14.90;85.00;;;;;;4933131;28;20035;-87
2022/09/14 02:38:04;;;;;;;4.57;3.63;;;14.80;85.20;;;;;;4927544;29;20032;-88
2022/09/14 02:41:17;;;;;;;3.88;3.28;;;14.80;85.30;;;;;;4946986;29;20484;-87
2022/09/14 02:44:14;;;;;;;4.30;3.55;;;14.80;85.20;;;;;;4858556;29;20025;-87
2022/09/14 02:46:50;;;;;;;4.97;3.80;;;14.80;85.60;;;;;;4928574;29;20031;-87
2022/09/14 02:49:34;;;;;;;4.10;3.20;;;14.80;85.60;;;;;;4947172;28;20046;-87
2022/09/14 02:52:09;;;;;;;3.58;3.22;;;14.90;85.50;;;;;;4939462;29;20490;-87
2022/09/14 02:54:40;;;;;;;3.88;3.20;;;14.90;85.40;;;;;;4949696;29;20097;-87
2022/09/14 02:57:06;;;;;;;5.45;3.70;;;14.90;85.20;;;;;;4955757;29;20102;-87
2022/09/14 02:59:32;;;;;;;4.63;3.60;;;14.90;85.30;;;;;;4933193;29;20171;-87
2022/09/14 03:01:59;;;;;;;4.50;3.25;;;14.90;85.30;;;;;;4929276;29;20031;-87
2022/09/14 03:04:25;;;;;;;3.85;3.25;;;14.90;85.20;;;;;;4953128;29;20118;-87
2022/09/14 03:06:50;;;;;;;3.80;3.20;;;14.90;85.20;;;;;;4937105;29;20118;-87
2022/09/14 03:09:17;;;;;;;4.32;3.47;;;15.00;85.10;;;;;;4934874;29;21990;-87
2022/09/14 03:11:42;;;;;;;3.85;3.28;;;15.00;85.10;;;;;;4949411;28;20023;-87
2022/09/14 03:14:10;;;;;;;3.88;3.13;;;15.00;85.00;;;;;;4936999;29;20023;-87
2022/09/14 03:16:37;;;;;;;3.80;3.25;;;15.00;84.80;;;;;;4935650;29;20038;-87
2022/09/14 03:19:04;;;;;;;4.13;3.20;;;15.00;84.70;;;;;;4937719;29;20024;-87
2022/09/14 03:21:31;;;;;;;4.03;3.30;;;15.00;84.70;;;;;;4933368;29;20024;-86
2022/09/14 03:23:57;;;;;;;4.32;3.40;;;15.10;84.60;;;;;;4927326;29;20044;-87
2022/09/14 03:26:24;;;;;;;4.80;3.33;;;15.10;84.60;;;;;;4938047;29;20039;-87
2022/09/14 03:28:51;;;;;;;5.05;3.70;;;15.10;84.40;;;;;;4938434;29;20027;-87
2022/09/14 03:31:17;;;;;;;3.35;3.03;;;15.10;84.40;;;;;;4928429;29;20050;-87
2022/09/14 03:33:43;;;;;;;3.10;2.80;;;15.10;84.40;;;;;;4937097;29;20032;-88
2022/09/14 03:36:15;;;;;;;3.60;3.13;;;15.10;84.30;;;;;;4942371;29;20070;-87
2022/09/14 03:38:46;;;;;;;3.55;3.00;;;15.10;84.20;;;;;;4934693;29;20483;-87
2022/09/14 03:41:13;;;;;;;3.33;2.80;;;15.10;84.20;;;;;;4926477;29;20048;-85
2022/09/14 03:43:40;;;;;;;3.38;2.95;;;15.10;84.20;;;;;;4930218;29;20391;-87
2022/09/14 03:46:11;;;;;;;4.50;3.55;;;15.10;84.10;;;;;;4936991;29;20078;-88
2022/09/14 03:48:37;;;;;;;3.47;2.85;;;15.10;84.00;;;;;;4931552;29;20119;-87
2022/09/14 03:51:04;;;;;;;4.03;3.25;;;15.10;84.10;;;;;;4937362;29;20093;-87
2022/09/14 03:53:30;;;;;;;3.97;3.00;;;15.10;84.10;;;;;;4944113;28;20031;-87
2022/09/14 03:55:56;;;;;;;2.85;2.58;;;15.20;84.70;;;;;;4950867;28;20023;-88
2022/09/14 03:58:23;;;;;;;3.78;3.28;;;15.20;84.00;;;;;;4948654;28;20039;-87
2022/09/14 04:00:48;;;;;;;4.20;3.08;;;15.20;83.90;;;;;;4937633;28;20430;-87
2022/09/14 04:03:14;;;;;;;3.40;2.88;;;15.20;83.90;;;;;;4938427;29;20166;-88
2022/09/14 04:05:40;;;;;;;3.70;2.78;;;15.20;83.70;;;;;;4942996;28;20062;-88
2022/09/14 04:08:06;;;;;;;3.90;3.30;;;15.20;83.70;;;;;;4934993;29;20082;-87
2022/09/14 04:10:32;;;;;;;3.95;3.20;;;15.20;83.80;;;;;;4936936;29;20031;-87
2022/09/14 04:13:00;;;;;;;3.85;2.95;;;15.20;83.90;;;;;;4941092;29;20087;-87
2022/09/14 04:15:26;;;;;;;3.67;2.67;;;15.20;84.60;;;;;;4964065;28;20051;-87
2022/09/14 04:17:52;;;;;;;4.10;2.95;;;15.20;84.10;;;;;;4935442;29;20091;-87
2022/09/14 04:20:18;;;;;;;3.70;3.03;;;15.20;84.10;;;;;;4938395;29;20058;-87
2022/09/14 04:22:44;;;;;;;3.65;2.90;;;15.20;84.00;;;;;;4948949;28;20027;-87
2022/09/14 04:25:10;;;;;;;4.15;3.08;;;15.20;84.00;;;;;;4937837;28;20063;-87
2022/09/14 04:27:36;;;;;;;3.35;2.90;;;15.20;83.90;;;;;;4928600;29;20083;-87
2022/09/14 04:30:03;;;;;;;3.40;2.80;;;15.20;83.90;;;;;;4936738;29;20099;-87
2022/09/14 04:32:29;;;;;;;3.50;2.90;;;15.30;84.00;;;;;;4932515;29;20027;-88
2022/09/14 04:34:54;;;;;;;3.13;2.83;;;15.30;84.00;;;;;;4936325;29;20029;-87
2022/09/14 04:37:20;;;;;;;3.63;2.83;;;15.30;83.90;;;;;;4932161;29;20024;-87
2022/09/14 04:39:46;;;;;;;3.67;3.08;;;15.30;83.80;;;;;;4933543;29;20039;-87
2022/09/14 04:42:11;;;;;;;3.60;2.90;;;15.40;83.90;;;;;;4928388;29;20031;-87
2022/09/14 04:44:37;;;;;;;3.22;2.70;;;15.40;83.80;;;;;;4937379;29;20038;-88
2022/09/14 04:47:03;;;;;;;3.60;2.92;;;15.40;83.80;;;;;;4941946;28;20039;-87
2022/09/14 04:49:28;;;;;;;3.03;2.72;;;15.40;83.80;;;;;;4933346;29;20094;-87
2022/09/14 04:51:54;;;;;;;2.97;2.67;;;15.40;83.80;;;;;;4937667;29;20484;-88
2022/09/14 04:54:20;;;;;;;3.50;3.13;;;15.40;83.90;;;;;;4939805;28;20276;-87
2022/09/14 04:56:46;;;;;;;3.50;2.95;;;15.40;83.90;;;;;;4928022;29;20078;-86
2022/09/14 04:59:12;;;;;;;3.78;3.03;;;15.40;83.90;;;;;;4930533;29;20423;-88
2022/09/14 05:01:42;;;;;;;4.10;3.20;;;15.40;84.00;;;;;;4954988;29;20038;-87
2022/09/14 05:04:09;;;;;;;4.20;3.33;;;15.40;84.00;;;;;;4935407;28;20031;-88
2022/09/14 05:06:37;;;;;;;3.25;2.90;;;15.40;84.00;;;;;;4936475;29;20070;-87
2022/09/14 05:09:05;;;;;;;4.05;3.13;;;15.40;84.00;;;;;;4936720;29;20037;-87
2022/09/14 05:11:33;;;;;;;3.65;2.90;;;15.50;84.10;;;;;;4926500;28;20027;-88
2022/09/14 05:13:59;;;;;;;3.70;3.17;;;15.50;84.10;;;;;;4945747;28;20028;-88
2022/09/14 05:16:30;;;;;;;3.17;2.85;;;15.50;84.20;;;;;;4937187;29;20031;-87
2022/09/14 05:19:00;;;;;;;3.65;3.15;;;15.50;84.10;;;;;;4934025;29;20078;-87
2022/09/14 05:21:27;;;;;;;4.53;3.42;;;15.50;84.10;;;;;;4929256;29;20039;-87
2022/09/14 05:24:01;;;;;;;3.92;3.22;;;15.50;84.00;;;;;;4943613;28;20035;-87
2022/09/14 05:26:28;;;;;;;4.35;3.47;;;15.50;84.70;;;;;;4929382;29;20055;-86
2022/09/14 05:28:56;;;;;;;5.00;3.55;;;15.60;84.20;;;;;;4947733;28;20035;-87
2022/09/14 05:31:22;;;;;;;4.28;3.20;;;15.60;84.10;;;;;;4935414;29;20027;-87
2022/09/14 05:33:49;;;;;;;4.63;3.40;;;15.60;84.20;;;;;;4935025;29;20065;-87
2022/09/14 05:36:15;;;;;;;4.00;3.33;;;15.60;84.10;;;;;;4930100;29;20117;-87
2022/09/14 05:38:41;;;;;;;4.72;3.70;;;15.70;84.10;;;;;;4930669;29;20443;-88
2022/09/14 05:41:10;;;;;;;4.88;4.00;;;15.70;84.20;;;;;;4929414;29;20030;-87
2022/09/14 05:43:35;;;;;;;3.95;3.30;;;15.70;84.20;;;;;;4924554;29;20035;-88
2022/09/14 05:46:03;;;;;;;3.83;3.28;;;15.70;84.20;;;;;;4926878;28;20118;-88
2022/09/14 05:48:33;;;;;;;3.58;3.25;;;15.80;84.20;;;;;;4925203;29;20511;-87
2022/09/14 05:51:00;;;;;;;3.90;3.50;;;15.80;84.20;;;;;;4934370;28;20509;-87
2022/09/14 05:53:26;;;;;;;3.70;3.30;;;15.80;84.20;;;;;;4935645;29;20023;-87
2022/09/14 05:56:06;;;;;;;3.95;3.55;;;15.80;84.20;;;;;;4930140;29;20467;-88
2022/09/14 05:58:34;;;;;;;3.70;3.13;;;15.90;84.10;;;;;;4939981;28;20024;-87
2022/09/14 06:01:24;;;;;;;3.92;3.50;;;16.00;84.40;;;;;;4930697;29;20788;-86
2022/09/14 06:03:53;;;;;;;4.40;3.60;;;16.00;84.10;;;;;;4928449;29;20131;-87
2022/09/14 06:06:20;;;;;;;3.80;3.42;;;16.10;84.40;;;;;;4918852;29;20535;-87
2022/09/14 06:08:51;;;;;;;3.72;3.05;;;16.20;84.20;;;;;;4939430;28;20052;-88
2022/09/14 06:11:20;;;;;;;3.30;3.00;;;16.30;84.00;;;;;;4935495;28;20074;-88
2022/09/14 06:13:46;;;;;;;3.83;3.40;;;16.30;83.90;;;;;;4932410;28;20024;-87
2022/09/14 06:16:14;;;;;;;3.50;2.97;;;16.40;83.70;;;;;;4931009;29;20443;-88
2022/09/14 06:18:41;;;;;;;3.40;3.10;;;16.50;83.60;;;;;;4932008;28;20483;-87
2022/09/14 06:21:09;;;;;;;4.03;3.47;;;16.50;83.50;;;;;;4941406;28;20028;-86
2022/09/14 06:23:35;;;;;;;4.03;3.40;;;16.60;83.30;;;;;;4935253;29;20059;-89
2022/09/14 06:26:02;;;;;;;3.63;3.20;;;16.70;83.30;;;;;;4936975;29;20538;-86
2022/09/14 06:28:28;;;;;;;4.00;3.60;;;16.70;83.10;;;;;;4923264;28;20426;-88
2022/09/14 06:30:54;;;;;;;3.40;3.10;;;16.70;83.00;;;;;;4929563;28;20801;-88
2022/09/14 06:33:20;;;;;;;3.75;3.40;;;16.80;83.20;;;;;;4927330;29;20028;-89
2022/09/14 06:35:57;;;;;;;3.72;3.22;;;16.90;83.00;;;;;;4931256;29;20026;-87
2022/09/14 06:38:23;;;;;;;3.80;3.22;;;17.00;82.70;;;;;;4940412;28;20526;-89
2022/09/14 06:40:57;;;;;;;3.30;3.00;;;17.10;82.50;;;;;;4933022;29;20027;-87
2022/09/14 06:43:28;;;;;;;3.60;3.30;;;17.10;82.50;;;;;;4935875;29;20027;-90
2022/09/14 06:45:58;;;;;;;3.50;3.10;;;17.20;82.70;;;;;;4924104;29;20626;-89
2022/09/14 06:48:25;;;;;;;3.58;3.25;;;17.30;82.60;;;;;;4932117;29;20034;-89
2022/09/14 06:50:50;;;;;;;3.85;3.50;;;17.50;82.40;;;;;;4940962;28;20102;-88
2022/09/14 06:53:16;;;;;;;4.43;2.60;;;17.50;81.70;;;;;;4921207;29;20712;-89
2022/09/14 06:55:44;;;;;;;3.63;3.03;;;17.60;81.40;;;;;;4919608;23;20182;-61
2022/09/14 06:58:10;;;;;;;4.57;3.10;;;17.60;80.90;;;;;;4899734;29;20487;-61
2022/09/14 07:00:36;;;;;;;3.30;2.92;;;17.60;80.10;;;;;;4903274;29;20046;-61
2022/09/14 07:03:02;;;;;;;2.95;2.65;;;17.50;79.50;;;;;;4892956;29;20130;-60
2022/09/14 07:05:29;;;;;;;3.45;2.70;;;17.50;79.30;;;;;;4908052;29;20470;-62
2022/09/14 07:07:56;;;;;;;2.72;2.50;;;17.40;79.30;;;;;;4904613;29;20399;-61
2022/09/14 07:10:26;;;;;;;3.67;2.88;;;17.40;79.50;;;;;;4910599;29;20496;-61
2022/09/14 07:12:53;;;;;;;3.38;3.08;;;17.40;79.70;;;;;;4906132;29;20082;-62
2022/09/14 07:15:20;;;;;;;3.00;2.70;;;17.40;79.60;;;;;;4902483;29;20103;-61
2022/09/14 07:17:46;;;;;;;3.03;2.72;;;17.50;79.60;;;;;;4900966;29;21998;-61
2022/09/14 07:20:14;;;;;;;2.80;2.60;;;17.50;79.40;;;;;;4876767;29;20082;-62
2022/09/14 07:22:40;;;;;;;2.60;2.40;;;17.60;79.30;;;;;;4893668;29;20043;-63
2022/09/14 07:25:06;;;;;;;2.70;2.50;;;17.70;78.70;;;;;;4876117;29;20464;-63
2022/09/14 07:27:33;;;;;;;2.92;2.63;;;17.80;77.80;;;;;;4891088;29;20119;-62
2022/09/14 07:30:00;;;;;;;3.13;2.83;;;17.90;77.00;;;;;;4894021;29;20038;-62
2022/09/14 07:32:25;;;;;;;2.42;2.22;;;17.90;76.40;;;;;;4897397;29;20111;-61
2022/09/14 07:34:51;;;;;;;3.03;2.60;;;17.80;75.70;;;;;;4904319;29;20032;-61
2022/09/14 07:37:17;;;;;;;2.40;2.20;;;17.70;75.90;;;;;;4906553;29;20716;-64
2022/09/14 07:39:43;;;;;;;2.30;2.10;;;17.70;76.10;;;;;;4903658;29;20056;-60
2022/09/14 07:42:08;;;;;;;2.83;2.40;;;17.60;76.00;;;;;;4898117;29;20127;-62
2022/09/14 07:44:34;;;;;;;2.70;2.45;;;17.50;75.80;;;;;;4897446;29;20031;-62
2022/09/14 07:47:00;;;;;;;3.28;2.80;;;17.40;75.90;;;;;;4890725;29;20055;-62
2022/09/14 07:49:25;;;;;;;2.95;2.50;;;17.40;75.90;;;;;;4902662;29;20032;-62
2022/09/14 07:51:52;;;;;;;2.75;2.50;;;17.30;76.00;;;;;;4902266;29;20717;-63
2022/09/14 07:54:18;;;;;;;2.60;2.40;;;17.30;76.30;;;;;;4893299;29;20126;-63
2022/09/14 07:56:44;;;;;;;2.65;2.45;;;17.30;76.50;;;;;;4903890;29;20042;-61
2022/09/14 07:59:12;;;;;;;2.40;2.20;;;17.40;76.60;;;;;;4895156;29;20833;-63
2022/09/14 08:01:37;;;;;;;2.60;2.40;;;17.50;76.90;;;;;;4896482;29;20098;-61
2022/09/14 08:04:04;;;;;;;2.40;2.20;;;17.60;76.60;;;;;;4906076;29;21503;-63
2022/09/14 08:06:30;;;;;;;2.53;2.30;;;17.70;76.20;;;;;;4906364;29;20040;-63
2022/09/14 08:08:56;;;;;;;2.10;1.90;;;17.90;75.70;;;;;;4907503;29;20879;-62
2022/09/14 08:11:30;;;;;;;2.20;2.10;;;18.00;75.50;;;;;;4905848;29;20437;-62
2022/09/14 08:13:59;;;;;;;2.60;2.30;;;18.10;74.70;;;;;;4906301;29;20110;-63
2022/09/14 08:16:26;;;;;;;2.30;2.10;;;18.20;74.30;;;;;;4910680;29;20038;-63
2022/09/14 08:18:54;;;;;;;1.90;1.80;;;18.30;73.90;;;;;;4906928;29;20047;-62
2022/09/14 08:21:20;;;;;;;1.60;1.50;;;18.30;73.90;;;;;;4909687;29;20035;-62
2022/09/14 08:23:46;;;;;;;1.92;1.77;;;18.30;74.00;;;;;;4904730;29;20063;-62
2022/09/14 08:26:15;;;;;;;1.52;1.42;;;18.40;73.90;;;;;;4902550;29;20047;-64
2022/09/14 08:28:41;;;;;;;1.60;1.50;;;18.50;73.70;;;;;;4896919;29;20028;-64
2022/09/14 08:31:13;;;;;;;1.40;1.30;;;18.60;73.50;;;;;;4901513;29;20035;-63
2022/09/14 08:33:42;;;;;;;2.00;1.75;;;18.60;73.20;;;;;;4903659;29;20467;-63
2022/09/14 08:36:09;;;;;;;2.00;1.80;;;18.70;73.10;;;;;;4898377;29;20032;-63
2022/09/14 08:38:35;;;;;;;2.17;2.08;;;18.80;72.60;;;;;;4892344;29;20035;-62
2022/09/14 08:41:08;;;;;;;1.35;1.27;;;18.80;72.20;;;;;;4895531;29;20035;-61
2022/09/14 08:43:34;;;;;;;1.52;1.42;;;18.80;72.10;;;;;;4902605;29;20086;-62
2022/09/14 08:46:03;;;;;;;1.63;1.52;;;18.80;72.40;;;;;;4904663;29;21961;-62
2022/09/14 08:48:35;;;;;;;1.70;1.55;;;18.80;72.00;;;;;;4899082;29;20040;-61
2022/09/14 08:51:04;;;;;;;1.45;1.35;;;18.80;71.60;;;;;;4901490;29;20127;-63
2022/09/14 08:53:38;;;;;;;1.70;1.48;;;18.90;71.60;;;;;;4892810;29;20028;-63
2022/09/14 08:56:30;;;;;;;1.33;1.30;;;18.90;71.60;;;;;;4878498;29;20167;-62
2022/09/14 08:58:58;;;;;;;1.60;1.50;;;19.00;71.50;;;;;;4873560;29;20532;-63
2022/09/14 09:01:24;;;;;;;2.63;2.15;;;19.00;71.30;;;;;;4877850;29;20040;-65
2022/09/14 09:04:11;;;;;;;1.80;1.70;;;19.10;70.50;;;;;;4879229;29;20185;-64
2022/09/14 09:06:56;;;;;;;1.58;1.48;;;19.10;70.10;;;;;;4879863;29;20036;-64
2022/09/14 09:09:37;;;;;;;2.17;2.00;;;19.10;70.20;;;;;;4877653;29;20132;-64
2022/09/14 09:12:04;;;;;;;1.77;1.30;;;19.00;70.40;;;;;;4875785;29;20044;-63
2022/09/14 09:14:38;;;;;;;1.90;1.80;;;19.00;70.40;;;;;;4880769;29;20028;-63
2022/09/14 09:17:13;;;;;;;1.70;1.60;;;19.10;70.50;;;;;;4884001;29;20356;-64
2022/09/14 09:20:05;;;;;;;1.55;1.48;;;19.00;70.40;;;;;;4876671;29;21427;-62
2022/09/14 09:22:43;;;;;;;1.77;1.67;;;19.10;70.30;;;;;;4879774;29;20028;-63
2022/09/14 09:25:27;;;;;;;1.67;1.50;;;19.00;70.30;;;;;;4880060;29;20036;-63
2022/09/14 09:28:02;;;;;;;2.30;2.10;;;19.00;70.20;;;;;;4877133;29;20091;-63
2022/09/14 09:30:28;;;;;;;1.73;1.63;;;19.10;70.10;;;;;;4880915;29;20404;-62
2022/09/14 09:32:55;;;;;;;2.47;2.10;;;19.00;70.00;;;;;;4870349;29;20135;-65
2022/09/14 09:35:23;;;;;;;1.73;1.63;;;19.00;69.90;;;;;;4872232;29;21675;-65
2022/09/14 09:37:49;;;;;;;1.63;1.52;;;19.00;69.80;;;;;;4849702;29;21087;-63
2022/09/14 09:40:26;;;;;;;1.25;1.17;;;19.00;69.90;;;;;;4868041;29;20037;-65
2022/09/14 09:43:10;;;;;;;1.50;1.40;;;19.00;69.60;;;;;;4886444;29;20071;-64
2022/09/14 09:46:01;;;;;;;1.75;1.65;;;19.00;69.40;;;;;;4879137;29;20406;-62
2022/09/14 09:48:47;;;;;;;1.65;1.55;;;19.00;69.20;;;;;;4871232;29;20752;-62
2022/09/14 09:51:23;;;;;;;1.60;1.50;;;19.00;68.50;;;;;;4875779;29;20096;-63
2022/09/14 09:54:11;;;;;;;1.48;1.38;;;19.00;68.60;;;;;;4878663;29;20575;-64
2022/09/14 09:56:49;;;;;;;1.70;1.60;;;18.90;68.30;;;;;;4873877;29;20071;-63
2022/09/14 09:59:34;;;;;;;1.80;1.70;;;18.90;68.90;;;;;;4870865;29;20158;-64
2022/09/14 10:02:21;;;;;;;1.48;1.38;;;18.90;68.10;;;;;;4870268;29;20039;-63
2022/09/14 10:05:17;;;;;;;1.17;1.17;;;18.80;68.40;;;;;;4878752;29;20325;-65
2022/09/14 10:07:49;;;;;;;1.52;1.42;;;18.80;68.40;;;;;;4879295;29;20143;-62
2022/09/14 10:10:18;;;;;;;1.50;1.40;;;18.80;68.40;;;;;;4874775;29;20036;-61
2022/09/14 10:12:53;;;;;;;1.30;1.20;;;18.80;68.20;;;;;;4874399;29;20050;-64
2022/09/14 10:15:33;;;;;;;1.05;1.05;;;18.80;68.20;;;;;;4867032;29;20048;-63
2022/09/14 10:18:11;;;;;;;1.88;1.77;;;18.90;68.30;;;;;;4884156;29;20034;-63
2022/09/14 10:20:51;;;;;;;1.60;1.50;;;18.90;68.40;;;;;;4873490;29;21078;-65
2022/09/14 10:23:17;;;;;;;1.50;1.40;;;19.00;68.60;;;;;;4876263;29;20036;-62
2022/09/14 10:25:47;;;;;;;1.70;1.60;;;19.10;68.70;;;;;;4881325;29;20095;-65
2022/09/14 10:28:29;;;;;;;1.90;1.67;;;19.20;68.70;;;;;;4880290;29;20029;-65
2022/09/14 10:31:13;;;;;;;1.50;1.40;;;19.30;68.50;;;;;;4884899;29;20040;-65
2022/09/14 10:33:39;;;;;;;2.05;1.52;;;19.50;68.20;;;;;;4890739;29;20033;-65
2022/09/14 10:36:07;;;;;;;2.00;1.70;;;19.60;68.10;;;;;;4890919;29;20063;-65
2022/09/14 10:39:03;;;;;;;1.70;1.60;;;19.70;67.80;;;;;;4887219;29;20103;-65
2022/09/14 10:41:41;;;;;;;1.60;1.50;;;19.80;67.70;;;;;;4885867;29;20036;-65
2022/09/14 10:44:21;;;;;;;1.60;1.50;;;19.90;67.60;;;;;;4886658;29;20120;-64
2022/09/14 10:47:14;;;;;;;2.03;1.90;;;19.90;67.40;;;;;;4884328;29;20107;-65
2022/09/14 10:50:18;;;;;;;2.08;1.77;;;20.00;67.20;;;;;;4892221;29;20043;-65
2022/09/14 10:53:02;;;;;;;1.65;1.55;;;20.00;67.10;;;;;;4895969;29;20028;-65
2022/09/14 10:55:34;;;;;;;1.38;1.27;;;20.10;67.10;;;;;;4900282;29;21306;-65
2022/09/14 10:58:19;;;;;;;1.30;1.30;;;20.10;67.00;;;;;;4882482;29;20036;-65
2022/09/14 11:01:07;;;;;;;1.65;1.55;;;20.20;66.90;;;;;;4886510;29;20026;-67
2022/09/14 11:03:53;;;;;;;1.60;1.50;;;20.20;67.00;;;;;;4884526;29;20579;-66
2022/09/14 11:06:37;;;;;;;2.17;1.90;;;20.30;66.80;;;;;;4880438;29;21065;-64
2022/09/14 11:09:23;;;;;;;1.77;1.67;;;20.30;66.60;;;;;;4874844;29;20042;-63
2022/09/14 11:12:12;;;;;;;2.20;2.00;;;20.30;65.90;;;;;;4885000;29;20618;-64
2022/09/14 11:15:07;;;;;;;2.03;1.83;;;20.20;65.80;;;;;;4890450;29;20028;-66
2022/09/14 11:18:01;;;;;;;1.65;1.55;;;20.10;65.80;;;;;;4892005;29;20028;-66
2022/09/14 11:20:34;;;;;;;1.88;1.77;;;20.00;65.90;;;;;;4899530;29;20052;-65
2022/09/14 11:23:21;;;;;;;1.70;1.60;;;20.00;66.30;;;;;;4897951;29;23307;-65
2022/09/14 11:25:55;;;;;;;2.30;2.10;;;19.90;66.40;;;;;;4885287;29;20043;-63
2022/09/14 11:28:47;;;;;;;1.80;1.70;;;19.90;66.50;;;;;;4886238;29;20059;-64
2022/09/14 11:31:28;;;;;;;2.10;1.90;;;19.90;66.50;;;;;;4895472;29;20029;-65
2022/09/14 11:34:00;;;;;;;;;;;19.90;66.50;;;;;;4897125;29;20028;-65
2022/09/14 11:36:40;;;;;;;2.13;1.98;;;19.80;66.50;;;;;;4890569;29;19915;-65
2022/09/14 11:39:29;;;;;;;2.28;1.80;;;19.80;66.90;;;;;;4890780;29;20032;-64
2022/09/14 11:42:02;;;;;;;2.03;1.92;;;19.80;66.90;;;;;;4900550;29;20023;-65
2022/09/14 11:44:36;;;;;;;2.20;2.00;;;19.80;66.90;;;;;;4904950;29;20036;-65
2022/09/14 11:47:21;;;;;;;2.70;2.15;;;19.80;66.90;;;;;;4912791;29;20017;-63
2022/09/14 11:49:49;;;;;;;2.50;2.30;;;19.70;66.90;;;;;;4903230;29;20075;-65
2022/09/14 11:52:21;;;;;;;2.03;1.90;;;19.70;67.10;;;;;;4893765;29;20020;-64
2022/09/14 11:54:49;;;;;;;2.40;2.20;;;19.70;67.00;;;;;;4892450;29;20067;-64
2022/09/14 11:57:21;;;;;;;2.42;2.20;;;19.70;67.10;;;;;;4907188;29;20028;-65
2022/09/14 11:59:52;;;;;;;2.53;2.33;;;19.60;67.20;;;;;;4880699;29;20035;-66
2022/09/14 12:02:26;;;;;;;2.20;2.03;;;19.70;67.40;;;;;;4892656;29;20032;-65
2022/09/14 12:05:08;;;;;;;2.97;2.40;;;19.70;67.50;;;;;;4910221;29;20060;-66
2022/09/14 12:07:33;;;;;;;;;;;19.80;67.60;;;;;;4895798;29;20347;-62
2022/09/14 12:10:19;;;;;;;2.30;2.10;;;19.80;67.80;;;;;;4910414;29;20009;-65
2022/09/14 12:13:19;;;;;;;2.40;2.20;;;19.80;67.70;;;;;;4917271;29;20031;-65
2022/09/14 12:15:45;;;;;;;2.55;1.95;;;19.90;67.80;;;;;;4913196;29;20095;-64
2022/09/14 12:18:12;;;;;;;2.85;2.33;;;19.90;67.80;;;;;;4907079;29;20040;-65
2022/09/14 12:20:45;;;;;;;3.13;2.13;;;19.90;68.00;;;;;;4912926;29;20035;-66
2022/09/14 12:23:37;;;;;;;2.85;2.55;;;19.90;68.00;;;;;;4891132;29;20039;-67
2022/09/14 12:26:10;;;;;;;2.92;2.60;;;19.90;68.00;;;;;;4892217;29;20040;-64
2022/09/14 12:28:38;;;;;;;3.63;2.60;;;19.90;67.90;;;;;;4895197;29;20030;-66
2022/09/14 12:31:04;;;;;;;2.78;2.53;;;19.90;67.80;;;;;;4896354;29;20495;-65
2022/09/14 12:33:32;;;;;;;2.45;2.25;;;19.90;67.80;;;;;;4890982;29;20378;-66
2022/09/14 12:36:09;;;;;;;2.50;2.28;;;19.90;67.90;;;;;;4903900;29;21536;-64
2022/09/14 12:38:51;;;;;;;3.00;2.50;;;19.90;68.10;;;;;;4907042;29;20035;-66
2022/09/14 12:41:17;;;;;;;2.60;2.40;;;19.80;68.50;;;;;;4893918;29;20095;-65
2022/09/14 12:43:51;;;;;;;3.17;2.70;;;19.80;68.30;;;;;;4907351;29;20042;-66
2022/09/14 12:46:19;;;;;;;2.63;2.42;;;19.80;68.60;;;;;;4897895;29;20955;-64
2022/09/14 12:48:47;;;;;;;2.72;2.53;;;19.80;68.70;;;;;;4899456;29;20050;-66
2022/09/14 12:51:30;;;;;;;3.53;2.88;;;19.70;68.80;;;;;;4903504;29;20028;-66
2022/09/14 12:54:07;;;;;;;2.90;2.70;;;19.70;69.00;;;;;;4907896;29;20031;-66
2022/09/14 12:56:35;;;;;;;3.28;2.72;;;19.70;69.10;;;;;;4911685;29;20031;-63
2022/09/14 12:59:23;;;;;;;3.85;2.90;;;19.70;69.20;;;;;;4911195;29;20034;-65
2022/09/14 13:01:55;;;;;;;4.28;2.88;;;19.70;69.20;;;;;;4907630;29;21165;-65
2022/09/14 13:04:26;;;;;;;2.97;2.67;;;19.60;69.20;;;;;;4903492;29;20046;-64
2022/09/14 13:06:54;;;;;;;3.47;2.80;;;19.60;69.30;;;;;;4901319;29;20130;-66
2022/09/14 13:09:22;;;;;;;3.22;2.60;;;19.70;69.30;;;;;;4903512;29;20036;-65
2022/09/14 13:11:55;;;;;;;3.13;2.63;;;19.70;69.20;;;;;;4905569;29;20099;-65
2022/09/14 13:14:25;;;;;;;3.28;2.95;;;19.70;69.20;;;;;;4905678;29;20042;-63